Time;durP1;ratioP1;P1;durP2;ratioP2;P2;SDS_P1;SDS_P2;PMS_P1;PMS_P2;Temp;Humidity;BMP_temperature;BMP_pressure;BME280_temperature;BME280_humidity;BME280_pressure;Samples;Min_cycle;Max_cycle;Signal;HPM_P1;HPM_P2
2022/01/12 00:00:55;;;;;;;70.90;26.73;;;;;;;;;;5092290;28;20069;-70
2022/01/12 00:03:21;;;;;;;72.72;27.17;;;;;;;;;;5092250;28;20035;-71
2022/01/12 00:05:47;;;;;;;82.95;28.98;;;;;;;;;;5092212;28;20035;-71
2022/01/12 00:08:13;;;;;;;92.32;29.80;;;;;;;;;;5092034;28;20036;-71
2022/01/12 00:10:40;;;;;;;92.97;31.60;;;;;;;;;;5092057;28;20125;-71
2022/01/12 00:13:06;;;;;;;86.45;30.23;;;;;;;;;;5073650;28;20485;-71
2022/01/12 00:15:32;;;;;;;85.97;30.75;;;;;;;;;;5083756;28;20017;-71
2022/01/12 00:17:58;;;;;;;96.68;32.90;;;;;;;;;;5071780;28;20021;-71
2022/01/12 00:20:24;;;;;;;81.88;30.52;;;;;;;;;;5071577;28;20081;-71
2022/01/12 00:22:52;;;;;;;74.25;30.63;;;;;;;;;;5071551;28;20036;-71
2022/01/12 00:33:17;;;;;;;117.25;36.45;;;;;;;;;;5071421;28;20395;-71
2022/01/12 00:35:48;;;;;;;97.82;33.53;;;;;;;;;;5071598;28;20031;-71
2022/01/12 00:38:15;;;;;;;81.82;29.88;;;;;;;;;;5071442;28;20024;-71
2022/01/12 00:40:43;;;;;;;82.95;31.45;;;;;;;;;;5071495;28;20036;-71
2022/01/12 00:43:09;;;;;;;104.65;36.25;;;;;;;;;;5071382;28;20037;-71
2022/01/12 00:45:37;;;;;;;86.93;33.33;;;;;;;;;;5071519;28;20075;-71
2022/01/12 00:48:04;;;;;;;76.18;30.65;;;;;;;;;;5082013;28;20107;-71
2022/01/12 00:50:30;;;;;;;90.88;33.25;;;;;;;;;;5091591;28;20386;-71
2022/01/12 00:52:56;;;;;;;106.35;36.72;;;;;;;;;;5091243;28;20051;-71
2022/01/12 00:55:22;;;;;;;81.10;30.60;;;;;;;;;;5091510;28;20028;-71
2022/01/12 00:57:49;;;;;;;85.35;32.83;;;;;;;;;;5091651;28;20054;-71
2022/01/12 01:00:16;;;;;;;108.90;36.60;;;;;;;;;;5091314;28;20027;-71
2022/01/12 01:02:42;;;;;;;100.25;35.92;;;;;;;;;;5091335;28;20032;-71
2022/01/12 01:05:08;;;;;;;88.93;33.00;;;;;;;;;;5091247;28;20032;-71
2022/01/12 01:07:34;;;;;;;84.57;32.85;;;;;;;;;;5091288;28;20527;-71
2022/01/12 01:10:06;;;;;;;80.03;31.73;;;;;;;;;;5091255;28;20024;-71
2022/01/12 01:12:34;;;;;;;89.03;32.13;;;;;;;;;;5091410;28;20028;-71
2022/01/12 01:15:06;;;;;;;86.50;33.88;;;;;;;;;;5083821;28;20028;-71
2022/01/12 01:25:48;;;;;;;82.95;31.20;;;;;;;;;;5075108;28;20044;-71
2022/01/12 01:28:15;;;;;;;100.05;34.28;;;;;;;;;;5074809;28;20028;-71
2022/01/12 01:30:43;;;;;;;108.20;34.83;;;;;;;;;;5074877;28;20024;-71
2022/01/12 01:33:10;;;;;;;89.55;33.13;;;;;;;;;;5074584;28;20411;-71
2022/01/12 01:35:38;;;;;;;80.63;32.15;;;;;;;;;;5074672;28;20375;-71
2022/01/12 01:38:05;;;;;;;75.50;30.75;;;;;;;;;;5074542;28;20124;-71
2022/01/12 01:40:32;;;;;;;77.13;31.52;;;;;;;;;;5074510;28;20024;-71
2022/01/12 01:53:43;;;;;;;97.30;35.20;;;;;;;;;;5094648;28;20122;-71
2022/01/12 01:56:11;;;;;;;81.22;33.85;;;;;;;;;;5094569;28;20382;-71
2022/01/12 01:58:37;;;;;;;82.10;33.75;;;;;;;;;;5094511;28;20028;-71
2022/01/12 02:01:03;;;;;;;96.28;34.47;;;;;;;;;;5094543;28;20032;-71
2022/01/12 02:03:30;;;;;;;114.20;37.92;;;;;;;;;;5094305;28;20406;-71
2022/01/12 02:05:59;;;;;;;83.63;34.65;;;;;;;;;;5094407;28;20059;-71
2022/01/12 02:08:25;;;;;;;97.93;34.67;;;;;;;;;;5094123;28;20024;-71
2022/01/12 02:10:57;;;;;;;87.80;34.30;;;;;;;;;;5094298;28;20386;-71
2022/01/12 02:13:24;;;;;;;88.82;35.28;;;;;;;;;;5094104;28;20032;-71
2022/01/12 02:15:51;;;;;;;82.90;33.35;;;;;;;;;;5083562;28;20036;-71
2022/01/12 02:18:35;;;;;;;92.13;35.45;;;;;;;;;;5055642;28;20373;-71
2022/01/12 02:40:25;;;;;;;123.32;39.58;;;;;;;;;;5073474;28;20102;-71
2022/01/12 02:51:10;;;;;;;114.03;39.60;;;;;;;;;;5093625;28;20071;-71
2022/01/12 02:53:43;;;;;;;97.63;35.38;;;;;;;;;;5093053;28;20052;-71
2022/01/12 02:56:10;;;;;;;134.52;41.10;;;;;;;;;;5093387;28;20020;-71
2022/01/12 02:58:36;;;;;;;151.18;43.22;;;;;;;;;;5093365;28;20020;-71
2022/01/12 03:03:33;;;;;;;130.57;40.30;;;;;;;;;;5093550;28;20040;-71
2022/01/12 03:06:02;;;;;;;200.48;47.13;;;;;;;;;;5093043;28;20020;-71
2022/01/12 03:08:36;;;;;;;169.43;44.30;;;;;;;;;;5074681;28;20417;-71
2022/01/12 03:11:02;;;;;;;158.77;42.15;;;;;;;;;;5093288;28;20035;-71
2022/01/12 03:13:28;;;;;;;182.02;45.28;;;;;;;;;;5092921;28;20470;-71
2022/01/12 03:15:55;;;;;;;166.00;42.47;;;;;;;;;;5074156;28;20091;-71
2022/01/12 03:18:21;;;;;;;178.45;45.53;;;;;;;;;;5092564;28;20332;-70
2022/01/12 03:20:47;;;;;;;261.17;52.08;;;;;;;;;;5092987;28;20078;-71
2022/01/12 03:23:16;;;;;;;253.30;52.40;;;;;;;;;;5091739;28;20078;-71
2022/01/12 03:25:43;;;;;;;235.63;50.08;;;;;;;;;;5092756;28;20020;-71
2022/01/12 03:28:09;;;;;;;270.55;53.72;;;;;;;;;;5074611;28;20036;-71
2022/01/12 03:31:22;;;;;;;236.13;47.35;;;;;;;;;;5092687;28;20035;-70
2022/01/12 03:33:40;;;;;;;237.82;49.00;;;;;;;;;;5072150;28;20510;-71
2022/01/12 03:38:52;;;;;;;114.70;38.38;;;;;;;;;;5092163;28;20053;-71
2022/01/12 03:41:18;;;;;;;206.25;47.55;;;;;;;;;;5092595;28;20710;-71
2022/01/12 03:43:44;;;;;;;153.38;42.50;;;;;;;;;;5092378;28;20493;-71
2022/01/12 03:46:11;;;;;;;182.70;46.55;;;;;;;;;;5073734;28;20028;-71
2022/01/12 03:48:37;;;;;;;158.10;44.60;;;;;;;;;;5076678;28;20031;-71
2022/01/12 03:51:03;;;;;;;183.68;47.08;;;;;;;;;;5072095;28;20151;-71
2022/01/12 03:53:29;;;;;;;144.68;42.92;;;;;;;;;;5070305;28;20403;-71
2022/01/12 03:55:55;;;;;;;208.65;47.30;;;;;;;;;;5071867;28;20033;-71
2022/01/12 03:58:21;;;;;;;190.23;46.13;;;;;;;;;;5070584;28;20518;-71
2022/01/12 04:00:47;;;;;;;162.02;43.35;;;;;;;;;;5072012;28;20024;-71
2022/01/12 04:03:15;;;;;;;112.03;38.78;;;;;;;;;;5071849;28;20154;-71
2022/01/12 04:08:19;;;;;;;117.13;38.28;;;;;;;;;;5071909;28;20031;-71
2022/01/12 04:08:27;;;;;;;188.57;44.60;;;;;;;;;;5071702;28;20386;-71
2022/01/12 04:10:54;;;;;;;162.93;43.25;;;;;;;;;;5071916;28;20103;-71
2022/01/12 04:13:22;;;;;;;132.20;41.58;;;;;;;;;;5071771;28;20028;-71
2022/01/12 04:15:50;;;;;;;157.35;44.08;;;;;;;;;;5082130;28;20126;-71
2022/01/12 04:18:16;;;;;;;220.82;48.67;;;;;;;;;;5091898;28;20024;-71
2022/01/12 04:20:47;;;;;;;187.82;43.53;;;;;;;;;;5073563;28;20034;-71
2022/01/12 04:23:17;;;;;;;213.20;46.83;;;;;;;;;;5091785;28;20040;-71
2022/01/12 04:25:47;;;;;;;191.82;47.35;;;;;;;;;;5091930;28;20453;-71
2022/01/12 04:28:14;;;;;;;156.27;42.15;;;;;;;;;;5091953;28;20123;-71
2022/01/12 04:30:40;;;;;;;170.50;44.53;;;;;;;;;;5091937;28;20375;-71
2022/01/12 04:33:06;;;;;;;201.02;43.78;;;;;;;;;;5091644;28;20036;-71
2022/01/12 04:35:45;;;;;;;147.45;40.17;;;;;;;;;;5091859;28;20035;-71
2022/01/12 04:38:15;;;;;;;138.57;38.90;;;;;;;;;;5091720;28;20565;-71
2022/01/12 04:40:41;;;;;;;137.50;39.30;;;;;;;;;;5091748;28;20083;-71
2022/01/12 04:43:09;;;;;;;143.50;40.05;;;;;;;;;;5091742;28;20079;-71
2022/01/12 04:48:38;;;;;;;110.53;36.33;;;;;;;;;;5091475;28;20039;-71
2022/01/12 04:50:54;;;;;;;107.55;36.35;;;;;;;;;;5087432;28;20028;-71
2022/01/12 04:53:21;;;;;;;126.50;38.70;;;;;;;;;;5091269;28;20459;-71
2022/01/12 04:55:48;;;;;;;212.77;46.40;;;;;;;;;;5091550;28;20024;-72
2022/01/12 04:58:14;;;;;;;145.25;40.53;;;;;;;;;;5095175;28;20040;-71
2022/01/12 05:00:42;;;;;;;135.85;37.92;;;;;;;;;;5095735;28;20032;-70
2022/01/12 05:13:53;;;;;;;190.48;43.33;;;;;;;;;;5095515;28;20069;-70
2022/01/12 05:16:20;;;;;;;159.55;39.42;;;;;;;;;;5095243;28;20024;-70
2022/01/12 05:18:47;;;;;;;182.85;43.60;;;;;;;;;;5077035;28;20039;-70
2022/01/12 05:21:15;;;;;;;149.02;39.70;;;;;;;;;;5095712;28;20118;-70
2022/01/12 05:23:41;;;;;;;180.40;42.75;;;;;;;;;;5095161;28;20090;-70
2022/01/12 05:26:07;;;;;;;258.83;46.58;;;;;;;;;;5095140;28;20077;-70
2022/01/12 05:28:38;;;;;;;140.25;38.55;;;;;;;;;;5095229;28;20031;-70
2022/01/12 05:31:04;;;;;;;261.55;50.33;;;;;;;;;;5095239;28;20043;-70
2022/01/12 05:33:30;;;;;;;199.45;43.72;;;;;;;;;;5094972;28;20367;-70
2022/01/12 05:35:58;;;;;;;258.35;47.55;;;;;;;;;;5095015;28;20382;-70
2022/01/12 05:38:24;;;;;;;150.25;39.95;;;;;;;;;;5094823;28;20070;-70
2022/01/12 05:40:52;;;;;;;142.40;39.95;;;;;;;;;;5094885;28;20028;-70
2022/01/12 05:43:24;;;;;;;126.63;37.88;;;;;;;;;;5094857;28;20043;-69
2022/01/12 05:45:52;;;;;;;132.13;39.05;;;;;;;;;;5094806;28;20027;-70
2022/01/12 05:50:47;;;;;;;160.43;39.75;;;;;;;;;;5094593;28;20028;-70
2022/01/12 05:53:14;;;;;;;205.00;44.65;;;;;;;;;;5094322;28;20036;-70
2022/01/12 05:55:40;;;;;;;488.60;61.72;;;;;;;;;;5094634;28;20085;-70
2022/01/12 05:58:07;;;;;;;561.72;68.20;;;;;;;;;;5094522;28;20032;-70
2022/01/12 06:00:33;;;;;;;205.27;44.80;;;;;;;;;;5094436;28;20020;-70
2022/01/12 06:02:59;;;;;;;515.88;65.72;;;;;;;;;;5094524;28;20032;-69
2022/01/12 06:05:27;;;;;;;261.48;47.95;;;;;;;;;;5094265;28;20036;-70
2022/01/12 06:07:54;;;;;;;295.15;50.85;;;;;;;;;;5094189;28;20553;-70
2022/01/12 06:10:23;;;;;;;207.10;43.33;;;;;;;;;;5094188;28;20462;-70
2022/01/12 06:12:50;;;;;;;527.80;65.82;;;;;;;;;;5094387;28;20478;-70
2022/01/12 06:15:16;;;;;;;239.65;47.70;;;;;;;;;;5094155;28;20424;-70
2022/01/12 06:17:42;;;;;;;137.40;40.50;;;;;;;;;;5075719;28;20367;-70
2022/01/12 06:20:11;;;;;;;208.38;47.00;;;;;;;;;;5094080;28;20039;-70
2022/01/12 06:22:37;;;;;;;187.60;45.65;;;;;;;;;;5093987;28;20028;-70
2022/01/12 06:25:07;;;;;;;468.77;64.03;;;;;;;;;;5094008;28;20033;-70
2022/01/12 06:27:34;;;;;;;213.85;44.65;;;;;;;;;;5094154;28;20028;-70
2022/01/12 06:32:30;;;;;;;183.02;42.17;;;;;;;;;;5093823;28;20091;-70
2022/01/12 06:34:56;;;;;;;254.07;48.17;;;;;;;;;;5093781;28;20020;-70
2022/01/12 06:37:22;;;;;;;290.60;48.92;;;;;;;;;;5075396;28;20435;-70
2022/01/12 06:39:48;;;;;;;175.50;42.40;;;;;;;;;;5093603;28;20461;-70
2022/01/12 06:42:14;;;;;;;159.32;42.53;;;;;;;;;;5093655;28;20024;-70
2022/01/12 06:44:40;;;;;;;149.32;40.65;;;;;;;;;;5075107;28;20028;-70
2022/01/12 06:47:06;;;;;;;347.67;56.08;;;;;;;;;;5090727;28;20778;-70
2022/01/12 06:49:33;;;;;;;156.98;41.38;;;;;;;;;;5097509;28;20103;-70
2022/01/12 06:52:00;;;;;;;305.77;49.97;;;;;;;;;;5113960;28;20016;-70
2022/01/12 06:54:26;;;;;;;193.90;43.72;;;;;;;;;;5105907;28;20104;-70
2022/01/12 06:56:52;;;;;;;293.95;50.33;;;;;;;;;;5103713;28;20020;-70
2022/01/12 06:59:18;;;;;;;169.02;42.33;;;;;;;;;;5101882;28;20028;-70
2022/01/12 07:01:47;;;;;;;183.88;42.13;;;;;;;;;;5103798;28;20023;-70
2022/01/12 07:04:14;;;;;;;233.00;47.97;;;;;;;;;;5103379;28;20043;-70
2022/01/12 07:06:41;;;;;;;141.63;38.63;;;;;;;;;;5101632;28;20107;-70
2022/01/12 07:09:09;;;;;;;204.82;46.78;;;;;;;;;;5102478;28;20125;-70
2022/01/12 07:11:36;;;;;;;155.10;40.28;;;;;;;;;;5102428;28;20077;-70
2022/01/12 07:14:02;;;;;;;139.40;37.67;;;;;;;;;;5103733;28;20024;-70
2022/01/12 07:16:29;;;;;;;156.63;39.28;;;;;;;;;;5100781;28;20030;-70
2022/01/12 07:18:59;;;;;;;148.70;38.00;;;;;;;;;;5105435;28;20020;-70
2022/01/12 07:21:29;;;;;;;140.88;37.88;;;;;;;;;;5085699;28;20450;-70
2022/01/12 07:24:00;;;;;;;158.75;38.85;;;;;;;;;;5100917;28;20024;-71
2022/01/12 07:26:30;;;;;;;125.22;35.03;;;;;;;;;;5103778;28;20035;-70
2022/01/12 07:28:56;;;;;;;126.25;34.63;;;;;;;;;;5103530;28;20490;-70
2022/01/12 07:31:25;;;;;;;166.20;38.80;;;;;;;;;;5101476;28;20108;-70
2022/01/12 07:33:54;;;;;;;135.85;36.67;;;;;;;;;;5084007;28;20085;-70
2022/01/12 07:36:22;;;;;;;145.65;36.20;;;;;;;;;;5103384;28;20462;-70
2022/01/12 07:38:55;;;;;;;141.38;35.22;;;;;;;;;;5083687;28;20027;-70
2022/01/12 07:41:29;;;;;;;126.85;31.52;;;;;;;;;;5083226;28;20027;-70
2022/01/12 07:44:03;;;;;;;132.68;31.95;;;;;;;;;;5101579;28;20378;-70
2022/01/12 07:46:30;;;;;;;126.47;32.13;;;;;;;;;;5100134;28;20032;-70
2022/01/12 07:48:57;;;;;;;140.07;32.58;;;;;;;;;;5083198;28;20015;-70
2022/01/12 07:51:30;;;;;;;118.78;31.13;;;;;;;;;;5101342;28;20121;-70
2022/01/12 07:53:58;;;;;;;121.05;32.28;;;;;;;;;;5098176;28;20378;-70
2022/01/12 07:56:29;;;;;;;118.70;30.85;;;;;;;;;;5101648;28;20047;-70
2022/01/12 07:58:57;;;;;;;119.43;31.35;;;;;;;;;;5103822;28;20115;-70
2022/01/12 08:01:24;;;;;;;134.65;33.33;;;;;;;;;;5100863;28;20012;-70
2022/01/12 08:03:51;;;;;;;130.57;33.20;;;;;;;;;;5100863;28;20157;-70
2022/01/12 08:06:18;;;;;;;120.80;31.45;;;;;;;;;;5087635;28;20028;-70
2022/01/12 08:08:44;;;;;;;141.68;33.25;;;;;;;;;;5084670;28;20023;-70
2022/01/12 08:11:11;;;;;;;137.05;32.08;;;;;;;;;;5068932;28;20078;-70
2022/01/12 08:13:39;;;;;;;116.03;30.52;;;;;;;;;;5089245;28;20035;-70
2022/01/12 08:16:06;;;;;;;104.95;28.50;;;;;;;;;;5089127;28;20054;-71
2022/01/12 08:18:33;;;;;;;103.95;27.90;;;;;;;;;;5087684;28;20033;-70
2022/01/12 08:21:05;;;;;;;104.28;27.75;;;;;;;;;;5070736;28;20032;-70
2022/01/12 08:23:31;;;;;;;95.63;27.10;;;;;;;;;;5068169;28;20028;-70
2022/01/12 08:25:57;;;;;;;109.13;26.08;;;;;;;;;;5092664;28;20026;-70
2022/01/12 08:28:24;;;;;;;99.90;26.25;;;;;;;;;;5086523;28;20037;-70
2022/01/12 08:30:51;;;;;;;90.90;25.23;;;;;;;;;;5075129;28;20024;-71
2022/01/12 08:33:18;;;;;;;103.88;27.17;;;;;;;;;;5082764;28;20024;-70
2022/01/12 08:35:46;;;;;;;93.57;26.27;;;;;;;;;;5100292;28;21380;-72
2022/01/12 08:38:16;;;;;;;114.47;26.58;;;;;;;;;;5082958;28;20133;-70
2022/01/12 08:40:42;;;;;;;116.47;25.98;;;;;;;;;;5083567;28;20031;-72
2022/01/12 08:43:09;;;;;;;100.30;27.20;;;;;;;;;;5103715;28;20016;-70
2022/01/12 08:45:38;;;;;;;90.53;24.30;;;;;;;;;;5104080;28;20053;-70
2022/01/12 08:48:04;;;;;;;101.55;24.17;;;;;;;;;;5104108;28;20549;-70
2022/01/12 08:50:31;;;;;;;99.63;24.80;;;;;;;;;;5104699;28;20027;-70
2022/01/12 08:52:59;;;;;;;86.93;24.40;;;;;;;;;;5101160;28;20071;-71
2022/01/12 08:55:26;;;;;;;91.63;24.13;;;;;;;;;;5076284;28;20034;-72
2022/01/12 08:57:54;;;;;;;86.00;23.40;;;;;;;;;;5078202;28;20432;-70
2022/01/12 09:00:21;;;;;;;101.38;25.48;;;;;;;;;;5096388;28;20074;-72
2022/01/12 09:02:51;;;;;;;94.28;25.25;;;;;;;;;;5101120;28;20021;-69
2022/01/12 09:05:17;;;;;;;89.10;23.65;;;;;;;;;;5100761;28;20031;-72
2022/01/12 09:07:44;;;;;;;91.63;23.27;;;;;;;;;;5100097;28;20045;-72
2022/01/12 09:10:12;;;;;;;88.95;24.08;;;;;;;;;;5101042;28;20028;-72
2022/01/12 09:12:39;;;;;;;86.97;24.67;;;;;;;;;;5102074;28;20038;-72
2022/01/12 09:15:13;;;;;;;89.78;24.48;;;;;;;;;;5101782;28;20532;-69
2022/01/12 09:17:42;;;;;;;84.80;24.67;;;;;;;;;;5091104;28;20025;-72
2022/01/12 09:20:11;;;;;;;86.18;24.67;;;;;;;;;;5108806;28;20095;-72
2022/01/12 09:22:38;;;;;;;86.00;23.33;;;;;;;;;;5111558;28;20020;-70
2022/01/12 09:25:05;;;;;;;81.00;22.45;;;;;;;;;;5111474;28;20031;-69
2022/01/12 09:27:36;;;;;;;73.95;22.00;;;;;;;;;;5111531;28;20032;-72
2022/01/12 09:30:14;;;;;;;71.22;20.50;;;;;;;;;;5111653;28;20481;-72
2022/01/12 09:32:42;;;;;;;72.50;21.05;;;;;;;;;;5106671;28;20048;-70
2022/01/12 09:35:09;;;;;;;74.68;20.27;;;;;;;;;;5101651;28;20016;-73
2022/01/12 09:37:37;;;;;;;61.50;18.75;;;;;;;;;;5097271;28;20111;-70
2022/01/12 09:40:05;;;;;;;68.15;19.83;;;;;;;;;;5084164;28;20024;-70
2022/01/12 09:42:39;;;;;;;58.70;18.35;;;;;;;;;;5109210;28;20024;-72
2022/01/12 09:45:14;;;;;;;63.42;19.30;;;;;;;;;;5115254;28;20381;-73
2022/01/12 09:47:42;;;;;;;58.25;18.42;;;;;;;;;;5109878;28;20047;-72
2022/01/12 09:50:11;;;;;;;61.03;18.63;;;;;;;;;;5106099;28;20023;-72
2022/01/12 09:52:37;;;;;;;65.40;19.70;;;;;;;;;;5087901;28;20500;-76
2022/01/12 09:55:04;;;;;;;65.63;20.95;;;;;;;;;;5105275;28;20040;-76
2022/01/12 09:57:30;;;;;;;66.15;20.90;;;;;;;;;;5103690;28;20027;-76
2022/01/12 09:59:56;;;;;;;58.33;18.80;;;;;;;;;;5103509;28;20020;-76
2022/01/12 10:02:22;;;;;;;67.05;19.80;;;;;;;;;;5103773;28;20012;-76
2022/01/12 10:04:59;;;;;;;68.57;18.40;;;;;;;;;;5104570;28;20719;-76
2022/01/12 10:07:25;;;;;;;68.25;21.15;;;;;;;;;;5104846;28;20381;-77
2022/01/12 10:09:53;;;;;;;74.65;20.50;;;;;;;;;;5103359;28;20019;-76
2022/01/12 10:12:21;;;;;;;69.20;19.60;;;;;;;;;;5094928;28;20024;-76
2022/01/12 10:14:55;;;;;;;72.43;20.65;;;;;;;;;;5094089;28;20054;-77
2022/01/12 10:17:31;;;;;;;72.10;20.30;;;;;;;;;;5075999;28;20020;-77
2022/01/12 10:20:09;;;;;;;68.63;20.02;;;;;;;;;;5078347;28;20032;-76
2022/01/12 10:22:36;;;;;;;63.30;20.17;;;;;;;;;;5097572;28;20501;-76
2022/01/12 10:25:13;;;;;;;68.93;20.67;;;;;;;;;;5094292;28;20056;-76
2022/01/12 10:27:40;;;;;;;67.38;19.60;;;;;;;;;;5094173;28;20016;-76
2022/01/12 10:30:06;;;;;;;84.95;29.05;;;;;;;;;;5092473;28;20783;-77
2022/01/12 10:32:32;;;;;;;59.25;18.98;;;;;;;;;;5089552;28;20077;-76
2022/01/12 10:35:00;;;;;;;57.85;18.73;;;;;;;;;;5113598;28;20057;-76
2022/01/12 10:37:26;;;;;;;56.75;17.75;;;;;;;;;;5113196;28;20123;-75
2022/01/12 10:39:53;;;;;;;62.65;19.00;;;;;;;;;;5107398;28;20020;-77
2022/01/12 10:42:21;;;;;;;76.82;24.23;;;;;;;;;;5102409;28;20060;-75
2022/01/12 10:44:48;;;;;;;74.78;24.27;;;;;;;;;;5102405;28;20016;-75
2022/01/12 10:47:32;;;;;;;62.33;19.05;;;;;;;;;;5102939;28;20020;-75
2022/01/12 10:50:00;;;;;;;54.67;19.42;;;;;;;;;;5097612;28;20510;-75
2022/01/12 10:52:28;;;;;;;58.75;20.55;;;;;;;;;;5093553;28;20024;-76
2022/01/12 10:54:55;;;;;;;76.22;23.15;;;;;;;;;;5092326;28;20035;-76
2022/01/12 10:57:32;;;;;;;75.35;25.73;;;;;;;;;;5093516;28;20042;-77
2022/01/12 11:00:01;;;;;;;74.13;26.80;;;;;;;;;;5093129;28;20012;-76
2022/01/12 11:02:31;;;;;;;69.00;26.10;;;;;;;;;;5093520;28;20523;-76
2022/01/12 11:04:58;;;;;;;81.10;27.67;;;;;;;;;;5101648;28;20385;-75
2022/01/12 11:07:25;;;;;;;65.53;23.23;;;;;;;;;;5113785;28;20020;-76
2022/01/12 11:09:54;;;;;;;71.05;24.88;;;;;;;;;;5113863;28;20065;-76
2022/01/12 11:12:20;;;;;;;66.57;23.50;;;;;;;;;;5113770;28;20024;-75
2022/01/12 11:14:46;;;;;;;73.32;24.75;;;;;;;;;;5111759;28;20047;-75
2022/01/12 11:17:12;;;;;;;64.10;23.20;;;;;;;;;;5079976;28;20386;-76
2022/01/12 11:19:40;;;;;;;67.00;26.25;;;;;;;;;;5097977;28;20098;-74
2022/01/12 11:22:24;;;;;;;66.65;23.33;;;;;;;;;;5078598;28;20122;-75
2022/01/12 11:24:53;;;;;;;64.28;23.92;;;;;;;;;;5073571;28;20030;-76
2022/01/12 11:27:22;;;;;;;59.65;22.40;;;;;;;;;;5096691;28;20029;-76
2022/01/12 11:29:48;;;;;;;48.15;16.90;;;;;;;;;;5095047;28;20384;-75
2022/01/12 11:32:21;;;;;;;55.60;16.70;;;;;;;;;;5096446;28;20035;-75
2022/01/12 11:34:58;;;;;;;46.00;15.65;;;;;;;;;;5098618;28;20504;-76
2022/01/12 11:37:24;;;;;;;53.35;17.42;;;;;;;;;;5098894;28;20024;-76
2022/01/12 11:39:50;;;;;;;43.75;14.40;;;;;;;;;;5102625;28;20087;-75
2022/01/12 11:42:18;;;;;;;48.30;15.82;;;;;;;;;;5103333;28;20021;-75
2022/01/12 11:44:44;;;;;;;39.03;13.27;;;;;;;;;;5098411;28;20038;-76
2022/01/12 11:47:15;;;;;;;48.50;13.00;;;;;;;;;;5101228;28;20039;-76
2022/01/12 11:49:44;;;;;;;42.60;12.82;;;;;;;;;;5102164;28;20016;-76
2022/01/12 11:52:15;;;;;;;37.13;13.23;;;;;;;;;;5103364;28;20080;-72
2022/01/12 11:54:45;;;;;;;36.75;12.85;;;;;;;;;;5083854;28;20036;-73
2022/01/12 11:57:13;;;;;;;38.55;12.43;;;;;;;;;;5082817;28;20101;-72
2022/01/12 12:00:08;;;;;;;40.50;12.73;;;;;;;;;;5099999;28;20012;-72
2022/01/12 12:02:36;;;;;;;40.65;12.20;;;;;;;;;;4989945;28;20057;-72
2022/01/12 12:05:06;;;;;;;37.03;12.15;;;;;;;;;;4989883;28;20037;-73
2022/01/12 12:07:42;;;;;;;39.88;12.52;;;;;;;;;;4987329;28;20034;-73
2022/01/12 12:10:12;;;;;;;33.55;11.60;;;;;;;;;;4989541;28;20034;-73
2022/01/12 12:12:38;;;;;;;38.38;12.15;;;;;;;;;;4981989;28;20041;-75
2022/01/12 12:15:06;;;;;;;34.13;11.38;;;;;;;;;;4990239;28;20032;-76
2022/01/12 12:17:33;;;;;;;40.00;12.15;;;;;;;;;;5006089;28;20069;-75
2022/01/12 12:20:00;;;;;;;47.42;14.60;;;;;;;;;;4992996;28;20049;-74
2022/01/12 12:22:28;;;;;;;42.67;13.07;;;;;;;;;;5009802;28;20034;-75
2022/01/12 12:24:58;;;;;;;35.03;12.20;;;;;;;;;;4987283;28;20022;-75
2022/01/12 12:27:25;;;;;;;33.88;12.57;;;;;;;;;;4980146;28;20556;-75
2022/01/12 12:29:52;;;;;;;45.95;14.55;;;;;;;;;;4978875;28;20034;-75
2022/01/12 12:32:32;;;;;;;42.88;13.65;;;;;;;;;;4979511;28;20192;-75
2022/01/12 12:35:02;;;;;;;44.03;14.77;;;;;;;;;;4981288;28;20354;-75
2022/01/12 12:37:34;;;;;;;39.17;12.88;;;;;;;;;;4989629;28;20106;-75
2022/01/12 12:40:00;;;;;;;;;;;;;;;;;;5076762;28;20024;-75
2022/01/12 12:42:26;;;;;;;37.80;13.32;;;;;;;;;;5109124;28;19927;-75
2022/01/12 12:45:02;;;;;;;44.40;14.15;;;;;;;;;;5112188;28;20024;-74
2022/01/12 12:47:30;;;;;;;43.35;13.40;;;;;;;;;;5106338;28;20027;-75
2022/01/12 12:49:57;;;;;;;42.25;13.40;;;;;;;;;;5091690;28;20059;-75
2022/01/12 12:52:32;;;;;;;49.60;14.50;;;;;;;;;;5091824;28;20055;-76
2022/01/12 12:55:00;;;;;;;41.58;13.13;;;;;;;;;;5091704;28;20600;-76
2022/01/12 12:57:27;;;;;;;42.70;13.65;;;;;;;;;;5091776;28;20482;-76
2022/01/12 13:00:28;;;;;;;32.60;11.65;;;;;;;;;;5091648;28;20031;-76
2022/01/12 13:02:56;;;;;;;45.35;13.18;;;;;;;;;;5009329;28;20026;-76
2022/01/12 13:05:27;;;;;;;37.92;13.07;;;;;;;;;;5009448;28;20049;-76
2022/01/12 13:07:53;;;;;;;36.55;12.38;;;;;;;;;;5009488;28;20029;-76
2022/01/12 13:10:21;;;;;;;32.75;11.95;;;;;;;;;;5009413;28;20045;-76
2022/01/12 13:12:49;;;;;;;39.75;12.63;;;;;;;;;;5009438;28;20034;-76
2022/01/12 13:15:25;;;;;;;33.17;12.05;;;;;;;;;;5017638;28;20040;-77
2022/01/12 13:17:59;;;;;;;38.60;12.82;;;;;;;;;;5010675;28;20508;-74
2022/01/12 13:22:52;;;;;;;32.50;11.80;;;;;;;;;;5013085;28;20120;-75
2022/01/12 13:25:20;;;;;;;36.45;12.55;;;;;;;;;;5013293;28;20033;-75
2022/01/12 13:27:48;;;;;;;35.58;13.70;;;;;;;;;;5013231;28;20085;-75
2022/01/12 13:30:25;;;;;;;42.67;12.65;;;;;;;;;;5013191;28;20100;-76
2022/01/12 13:32:55;;;;;;;33.83;13.02;;;;;;;;;;5013080;28;20169;-75
2022/01/12 13:35:31;;;;;;;46.70;13.90;;;;;;;;;;5013557;28;20030;-80
2022/01/12 13:37:59;;;;;;;46.17;14.55;;;;;;;;;;5090661;28;20046;-74
2022/01/12 13:40:32;;;;;;;45.05;13.73;;;;;;;;;;5115244;28;20020;-73
2022/01/12 13:43:00;;;;;;;40.58;14.02;;;;;;;;;;5115935;28;20031;-73
2022/01/12 13:45:35;;;;;;;39.00;14.07;;;;;;;;;;5115870;28;20485;-75
2022/01/12 13:48:11;;;;;;;37.83;14.13;;;;;;;;;;5095249;28;20491;-74
2022/01/12 13:50:37;;;;;;;43.92;12.77;;;;;;;;;;5075007;28;20028;-75
2022/01/12 13:53:04;;;;;;;39.85;12.60;;;;;;;;;;5074226;28;20028;-74
2022/01/12 13:55:30;;;;;;;39.83;13.60;;;;;;;;;;5054265;28;20041;-75
2022/01/12 13:58:04;;;;;;;37.85;13.50;;;;;;;;;;5052921;28;20025;-75
2022/01/12 14:00:31;;;;;;;40.65;13.50;;;;;;;;;;5054748;28;20525;-75
2022/01/12 14:02:57;;;;;;;40.00;13.90;;;;;;;;;;5054449;28;20032;-73
2022/01/12 14:05:39;;;;;;;42.10;13.30;;;;;;;;;;5077165;28;20016;-73
2022/01/12 14:08:11;;;;;;;42.55;12.68;;;;;;;;;;5094312;28;20031;-74
2022/01/12 14:10:40;;;;;;;42.45;13.32;;;;;;;;;;5094836;28;20154;-74
2022/01/12 14:13:06;;;;;;;40.65;12.82;;;;;;;;;;5094385;28;20111;-76
2022/01/12 14:15:33;;;;;;;34.50;11.88;;;;;;;;;;5093307;28;20113;-76
2022/01/12 14:17:59;;;;;;;40.35;12.23;;;;;;;;;;5075854;28;20023;-75
2022/01/12 14:20:36;;;;;;;38.08;13.27;;;;;;;;;;5088331;28;20022;-75
2022/01/12 14:23:05;;;;;;;45.35;13.63;;;;;;;;;;5090403;28;20115;-75
2022/01/12 14:25:40;;;;;;;39.03;13.55;;;;;;;;;;5093757;28;20085;-73
2022/01/12 14:28:07;;;;;;;43.28;13.68;;;;;;;;;;5090689;28;20050;-75
2022/01/12 14:30:33;;;;;;;39.17;13.65;;;;;;;;;;5093905;28;20121;-75
2022/01/12 14:32:59;;;;;;;42.35;12.73;;;;;;;;;;5074969;28;20043;-74
2022/01/12 14:35:26;;;;;;;42.28;13.50;;;;;;;;;;5081673;28;20032;-76
2022/01/12 14:37:52;;;;;;;37.92;12.00;;;;;;;;;;5072671;28;20028;-76
2022/01/12 14:40:19;;;;;;;31.80;11.50;;;;;;;;;;5093714;28;20454;-76
2022/01/12 14:42:53;;;;;;;43.50;11.85;;;;;;;;;;5084935;28;20024;-77
2022/01/12 14:45:23;;;;;;;37.42;11.98;;;;;;;;;;5079848;28;20017;-77
2022/01/12 14:47:50;;;;;;;38.55;12.10;;;;;;;;;;5073238;28;20107;-76
2022/01/12 14:50:16;;;;;;;42.75;12.38;;;;;;;;;;5073481;28;20019;-76
2022/01/12 14:52:43;;;;;;;49.65;14.75;;;;;;;;;;5073337;28;20398;-77
2022/01/12 14:55:10;;;;;;;36.15;11.68;;;;;;;;;;5090729;28;20064;-77
2022/01/12 14:57:36;;;;;;;38.10;11.15;;;;;;;;;;5093622;28;20032;-75
2022/01/12 15:00:05;;;;;;;40.30;11.68;;;;;;;;;;5093547;28;20020;-74
2022/01/12 15:02:33;;;;;;;37.10;12.27;;;;;;;;;;5093583;28;20078;-74
2022/01/12 15:04:59;;;;;;;40.38;13.00;;;;;;;;;;5098931;28;20027;-74
2022/01/12 15:07:25;;;;;;;45.00;12.07;;;;;;;;;;5101168;28;20031;-76
2022/01/12 15:09:51;;;;;;;40.20;11.93;;;;;;;;;;5097632;28;20031;-76
2022/01/12 15:12:28;;;;;;;36.28;12.43;;;;;;;;;;5094188;28;20039;-75
2022/01/12 15:14:59;;;;;;;31.98;12.23;;;;;;;;;;5091286;28;20113;-76
2022/01/12 15:17:26;;;;;;;46.95;14.05;;;;;;;;;;5056091;28;20482;-75
2022/01/12 15:19:52;;;;;;;43.78;13.82;;;;;;;;;;5073764;28;20159;-75
2022/01/12 15:22:18;;;;;;;55.90;16.23;;;;;;;;;;5074051;28;20032;-75
2022/01/12 15:24:44;;;;;;;44.50;14.43;;;;;;;;;;5083705;28;20032;-75
2022/01/12 15:27:11;;;;;;;56.78;14.60;;;;;;;;;;5093865;28;20028;-75
2022/01/12 15:29:37;;;;;;;50.42;15.13;;;;;;;;;;5096540;28;20024;-75
2022/01/12 15:32:03;;;;;;;46.85;14.70;;;;;;;;;;5107795;28;20027;-75
2022/01/12 15:34:29;;;;;;;57.22;16.33;;;;;;;;;;5093753;28;20458;-75
2022/01/12 15:36:55;;;;;;;58.63;15.27;;;;;;;;;;5107718;28;20020;-75
2022/01/12 15:39:21;;;;;;;50.70;15.88;;;;;;;;;;5096382;28;20024;-74